Flight Track Log - Related Links

Times and Time Zones

All times are in EDT time to prevent confusion due to time zone crossing. See the ASQ4252 flight status page for this flight to view local times or setup timezone preferences in your user account.

Time Position Orientation Groundspeed Altitude Reporting Facility
EDT Latitude Longitude Course Direction KTS MPH feet Rate Location/Type
Wed 06:20:59 AM 40.7333 -74.1333 298° West 181 208 2,700  Level New York TRACON
Wed 06:22:05 AM 40.7833 -74.1833 323° Northwest 222 255 6,100 2,212 Climbing New York TRACON
Wed 06:23:00 AM 40.9750 -74.5047 319° Northwest  Level FlightAware Approximate
Wed 06:24:00 AM 41.0464 -74.5929 316° Northwest  Level FlightAware Approximate
Wed 06:24:17 AM 40.8825 -74.3472 309° West 285 328 10,000  Level New York Center
Wed 06:25:00 AM 41.1165 -74.6831 316° Northwest  Level FlightAware Approximate
Wed 06:25:18 AM 40.9425 -74.4275 315° West 331 381 10,000  Level New York Center
Wed 06:26:00 AM 41.1595 -74.7820 298° West  Level FlightAware Approximate
Wed 06:26:16 AM 41.0144 -74.5275 314° West 336 387 12,100  Level New York Center
Wed 06:27:16 AM 41.0803 -74.6164 315° West 336 387 14,300 2,200 Climbing New York Center
Wed 06:28:16 AM 41.1417 -74.7081 312° West 336 387 16,500 1,587 Climbing New York Center
Wed 06:29:17 AM 41.1900 -74.8183 300° West 331 381 17,500 1,279 Climbing New York Center
Wed 06:30:18 AM 41.2403 -74.9344 300° West 351 404 19,100 1,714 Climbing New York Center
Wed 06:31:16 AM 41.2883 -75.0481 299° West 358 412 20,900 1,866 Climbing New York Center
Wed 06:32:17 AM 41.3383 -75.1617 300° West 358 412 22,800 1,820 Climbing New York Center
Wed 06:33:18 AM 41.3861 -75.2753 299° West 363 418 24,600 1,785 Climbing New York Center
Wed 06:34:18 AM 41.4358 -75.3867 301° West 363 418 26,400 1,846 Climbing New York Center
Wed 06:35:15 AM 41.4814 -75.5006 298° West 363 418 28,200 1,815 Climbing New York Center
Wed 06:36:17 AM 41.5164 -75.6167 292° West 351 404 30,000 1,785 Climbing New York Center
Wed 06:37:16 AM 41.5489 -75.7353 290° West 339 390 31,800 1,815 Climbing New York Center
Wed 06:38:16 AM 41.5794 -75.8514 289° West 334 384 33,600 1,850 Climbing New York Center
Wed 06:39:16 AM 41.6122 -75.9592 292° West 334 384 35,500 1,190 Climbing New York Center
Wed 06:40:17 AM 41.6428 -76.0700 290° West 323 372 36,000 248 Climbing New York Center
Wed 06:41:17 AM 41.6769 -76.1892 291° West 330 380 36,000  Level New York Center
Wed 06:42:18 AM 41.7125 -76.3172 290° West 349 402 36,000  Level New York Center
Wed 06:43:16 AM 41.7519 -76.4539 291° West 375 432 36,000  Level New York Center
Wed 06:44:16 AM 41.7869 -76.5906 289° West 388 447 36,000  Level New York Center
Wed 06:44:57 AM 41.8125 -76.6825 290° West 389 448 36,000  Level Cleveland Center
Wed 06:45:57 AM 41.8481 -76.8114 290° West 400 460 36,000  Level Cleveland Center
Wed 06:46:57 AM 41.8836 -76.9403 290° West 393 452 36,000  Level Cleveland Center
Wed 06:47:57 AM 41.9208 -77.0694 291° West 377 434 36,000  Level Cleveland Center
Wed 06:48:57 AM 41.9517 -77.1933 289° West 372 428 36,000  Level Cleveland Center
Wed 06:49:57 AM 41.9889 -77.3228 291° West 366 421 36,000  Level Cleveland Center
Wed 06:50:57 AM 42.0239 -77.4553 290° West 366 421 36,000  Level Cleveland Center
Wed 06:51:57 AM 42.0586 -77.5906 289° West 372 428 36,000  Level Cleveland Center
Wed 06:52:57 AM 42.0933 -77.7233 289° West 378 435 36,000  Level Cleveland Center
Wed 06:53:57 AM 42.1322 -77.8617 291° West 378 435 36,000  Level Cleveland Center
Wed 06:54:57 AM 42.1667 -78.0031 288° West 378 435 36,000  Level Cleveland Center
Wed 06:55:57 AM 42.2031 -78.1389 290° West 383 441 36,000  Level Cleveland Center
Wed 06:56:57 AM 42.2411 -78.2778 290° West 383 441 36,000  Level Cleveland Center
Wed 06:57:57 AM 42.2753 -78.4167 288° West 383 441 36,000  Level Cleveland Center
Wed 06:58:57 AM 42.3111 -78.5558 289° West 388 447 36,000  Level Cleveland Center
Wed 06:59:57 AM 42.3467 -78.6925 289° West 388 447 36,000  Level Cleveland Center
Wed 07:00:57 AM 42.3825 -78.8347 289° West 388 447 36,000  Level Cleveland Center
Wed 07:01:57 AM 42.4114 -78.9606 287° West 393 452 36,000  Level Cleveland Center
Wed 07:02:57 AM 42.4486 -79.1003 290° West 393 452 36,000  Level Cleveland Center
Wed 07:03:57 AM 42.4839 -79.2514 288° West 393 452 36,000  Level Cleveland Center
Wed 07:04:57 AM 42.5000 -79.3975 279° West 393 452 36,000  Level Cleveland Center
Wed 07:05:57 AM 42.5033 -79.5411 272° West 388 447 36,000  Level Cleveland Center
Wed 07:06:57 AM 42.5131 -79.6847 275° West 388 447 36,000  Level Cleveland Center
Wed 07:07:57 AM 42.5225 -79.8311 275° West 388 447 36,000  Level Cleveland Center
Wed 07:08:57 AM 42.5294 -79.9747 274° West 388 447 36,000  Level Cleveland Center
Wed 07:09:57 AM 42.5300 -80.1069 270° West 388 447 36,000  Level Cleveland Center
Wed 07:10:57 AM 42.5347 -80.2506 273° West 382 440 36,000  Level Cleveland Center
Wed 07:11:57 AM 42.5433 -80.4028 274° West 393 452 36,000  Level Cleveland Center
Wed 07:12:57 AM 42.5478 -80.5578 272° West 393 452 36,000  Level Cleveland Center
Wed 07:13:57 AM 42.5539 -80.7044 273° West 388 447 36,000  Level Cleveland Center
Wed 07:14:57 AM 42.5619 -80.8511 274° West 383 441 36,000  Level Cleveland Center
Wed 07:15:57 AM 42.5636 -80.9919 271° West 383 441 36,000  Level Cleveland Center
Wed 07:16:57 AM 42.5694 -81.1358 273° West 383 441 36,000  Level Cleveland Center
Wed 07:17:57 AM 42.5747 -81.2825 273° West 383 441 36,000  Level Cleveland Center
Wed 07:18:57 AM 42.5800 -81.4233 273° West 392 451 36,000  Level Cleveland Center
Wed 07:19:57 AM 42.6019 -81.5675 282° West 386 444 36,000  Level Cleveland Center
Wed 07:20:57 AM 42.6278 -81.7033 285° West 391 450 36,000  Level Cleveland Center
Wed 07:21:57 AM 42.6494 -81.8281 283° West 386 444 36,000  Level Cleveland Center
Wed 07:22:57 AM 42.6747 -81.9725 283° West 386 444 36,000  Level Cleveland Center
Wed 07:23:57 AM 42.6981 -82.1144 283° West 386 444 36,000  Level Cleveland Center
Wed 07:24:57 AM 42.7231 -82.2533 284° West 386 444 36,000  Level Cleveland Center
Wed 07:25:57 AM 42.7461 -82.3983 282° West 392 451 36,000  Level Cleveland Center
Wed 07:26:57 AM 42.7708 -82.5433 283° West 392 451 36,000  Level Cleveland Center
Wed 07:27:57 AM 42.7933 -82.6825 282° West 392 451 36,000  Level Cleveland Center
Wed 07:28:57 AM 42.8178 -82.8250 283° West 392 451 36,000  Level Cleveland Center
Wed 07:29:57 AM 42.8419 -82.9675 283° West 392 451 36,000  Level Cleveland Center
Wed 07:30:57 AM 42.8639 -83.1100 282° West 392 451 36,000  Level Cleveland Center
Wed 07:31:57 AM 42.8878 -83.2525 283° West 392 451 36,000  Level Cleveland Center
Wed 07:32:57 AM 42.9094 -83.3925 282° West 392 451 36,000  Level Cleveland Center
Wed 07:33:57 AM 42.9331 -83.5381 283° West 392 451 36,000  Level Cleveland Center
Wed 07:34:57 AM 42.9542 -83.6808 281° West 392 451 36,000  Level Cleveland Center
Wed 07:35:57 AM 42.9711 -83.8236 279° West 392 451 36,000  Level Cleveland Center
Wed 07:36:57 AM 42.9858 -83.9664 278° West 392 451 36,000  Level Cleveland Center
Wed 07:37:57 AM 43.0003 -84.1119 278° West 392 451 36,000  Level Cleveland Center
Wed 07:38:35 AM 43.0092 -84.1947 278° West 383 441 36,000  Level Chicago Center
Wed 07:39:37 AM 43.0214 -84.3392 277° West 383 441 36,000  Level Chicago Center
Wed 07:40:38 AM 43.0367 -84.4811 278° West 381 438 36,000  Level Chicago Center
Wed 07:41:40 AM 43.0511 -84.6550 277° West 383 441 36,000  Level Chicago Center
Wed 07:42:41 AM 43.0647 -84.7975 277° West 381 438 36,000  Level Chicago Center
Wed 07:43:43 AM 43.0769 -84.9397 277° West 379 436 36,000  Level Chicago Center
Wed 07:44:45 AM 43.0894 -85.0775 277° West 371 427 36,000 -537 Level Chicago Center
Wed 07:45:46 AM 43.1011 -85.2150 277° West 366 421 34,900 -1,561 Descending Chicago Center
Wed 07:46:48 AM 43.1142 -85.3578 277° West 376 433 32,800 -1,452 Descending Chicago Center
Wed 07:47:50 AM 43.1258 -85.5050 276° West 388 447 31,900 -927 Descending Chicago Center
Wed 07:48:51 AM 43.1411 -85.6800 277° West 390 449 30,900 -927 Descending Chicago Center
Wed 07:49:53 AM 43.1536 -85.8267 277° West 394 453 30,000 -919 Descending Chicago Center
Wed 07:50:55 AM 43.1656 -85.9769 276° West 404 465 29,000 -976 Descending Chicago Center
Wed 07:51:56 AM 43.1694 -86.1294 272° West 411 473 28,000 -1,317 Descending Chicago Center
Wed 07:52:58 AM 43.1653 -86.3139 268° West 412 474 26,300 -1,500 Descending Chicago Center
Wed 07:54:00 AM 43.1628 -86.4736 269° West 421 484 24,900 -1,659 Descending Chicago Center
Wed 07:55:01 AM 43.1600 -86.6228 269° West 398 458 22,900 -2,000 Descending Chicago Center
Wed 07:56:03 AM 43.1575 -86.7683 269° West 386 444 20,800 -1,984 Descending Chicago Center
Wed 07:57:05 AM 43.1550 -86.9114 269° West 379 436 18,800 -2,468 Descending Chicago Center
Wed 07:58:07 AM 43.1508 -87.0536 268° West 376 433 15,700 -2,244 Descending Chicago Center
Wed 07:59:08 AM 43.1467 -87.1864 268° West 349 402 14,200 -1,463 Descending Chicago Center
Wed 08:00:10 AM 43.0947 -87.3139 241° Southwest 331 381 12,700 -1,403 Descending Chicago Center
Wed 08:01:12 AM 43.0425 -87.4139 234° Southwest 341 392 11,300 -1,355 Descending Chicago Center
Wed 08:02:14 AM 42.9892 -87.5200 236° Southwest 340 391 9,900 -1,355 Descending Chicago Center
Wed 08:03:16 AM 42.9428 -87.6178 237° Southwest 264 304 8,500 -1,548 Descending Chicago Center
Wed 08:04:18 AM 42.9039 -87.6978 236° Southwest 253 291 6,700 -1,951 Descending Chicago Center
Wed 08:05:19 AM 42.8956 -87.7892 263° West 245 282 4,500 -2,098 Descending Chicago Center
Wed 08:06:21 AM 42.8881 -87.8733 263° West 235 270 2,400 -2,032 Descending Chicago Center

Login

Don't have an account? Register now (free) for customized features, flight alerts, and more!